Capitol Logistics 1149


EBLG
Liège Airport
Liege, BE
EHAM
Schiphol International Airport
Amsterdam, NL

Activity Log

Date Flight Route Aircraft Duration
11/13/2019 CPX749 Not Available B738 0h 50m

Route Details

Aircraft Information
Primary: Boeing 737-800BCF
Backup: Not Available
Route Data
Distance: 104nm
Sched. Duration: 0h 35m
Avg. Duration: 0h 50m (+15m)
Times Flown: 1
Recm'd Route: Not Available
Planned Altitude: 21,000ft
Origin Wx: EBLG 200150Z 17012KT 150V210 CAVOK 11/05 Q1011 NOSIG
Dest. Wx: EHAM 200155Z 13009KT 100V160 CAVOK 08/05 Q1010 NOSIG
Notes:

Financial History
Total Freight: 29,041lbs
Average Load: 29,041lbs/flt
Fuel Used: 3,600lbs
Avg. Fuel Used: 3,600lbs/flt
Fuel Expense: $3,996
Avg. Fuel Expense: $3,996
Avg. Fuel Cost: $1.11/lbs
Total Gross Income: $60,696
Pilot Pay: $239
Total Expenses: $6,607
Total Revenue: $49,877
Average Revenue: $60,695.69